Time;durP1;ratioP1;P1;durP2;ratioP2;P2;SDS_P1;SDS_P2;PMS_P1;PMS_P2;Temp;Humidity;BMP_temperature;BMP_pressure;BME280_temperature;BME280_humidity;BME280_pressure;Samples;Min_cycle;Max_cycle;Signal;HPM_P1;HPM_P2
2022/05/20 00:00:08;;;;;;;;;;;22.50;57.50;;;;;;5115692;27;19919;-58
2022/05/20 00:02:35;;;;;;;;;;;22.50;57.60;;;;;;5106346;27;19919;-58
2022/05/20 00:05:02;;;;;;;;;;;22.50;57.60;;;;;;5112573;27;19919;-58
2022/05/20 00:07:28;;;;;;;;;;;22.50;57.60;;;;;;5107534;27;19923;-58
2022/05/20 00:09:55;;;;;;;;;;;22.50;57.60;;;;;;5132625;27;19919;-60
2022/05/20 00:12:23;;;;;;;;;;;22.50;57.60;;;;;;5116254;27;19935;-58
2022/05/20 00:14:50;;;;;;;;;;;22.50;57.60;;;;;;5113197;27;20036;-58
2022/05/20 00:17:16;;;;;;;;;;;22.50;57.60;;;;;;5111766;27;19920;-57
2022/05/20 00:19:44;;;;;;;;;;;22.50;57.60;;;;;;5116978;27;19972;-58
2022/05/20 00:22:11;;;;;;;;;;;22.40;57.50;;;;;;5108774;27;19920;-58
2022/05/20 00:25:45;;;;;;;;;;;22.40;57.50;;;;;;5111177;27;19926;-58
2022/05/20 00:27:26;;;;;;;;;;;22.40;58.10;;;;;;5110778;27;19926;-57
2022/05/20 00:29:52;;;;;;;;;;;22.50;57.70;;;;;;5116123;27;20328;-58
2022/05/20 00:32:19;;;;;;;;;;;22.40;57.60;;;;;;5102719;28;19928;-58
2022/05/20 00:34:46;;;;;;;;;;;22.40;57.60;;;;;;5125614;27;19973;-56
2022/05/20 00:37:12;;;;;;;;;;;22.40;57.60;;;;;;5115224;27;20291;-58
2022/05/20 00:39:39;;;;;;;;;;;22.40;57.60;;;;;;5115434;27;20338;-58
2022/05/20 00:42:10;;;;;;;;;;;22.40;57.60;;;;;;5114721;27;20019;-58
2022/05/20 00:44:38;;;;;;;;;;;22.40;57.60;;;;;;5132128;27;19926;-58
2022/05/20 00:47:04;;;;;;;;;;;22.40;57.60;;;;;;5110083;27;19920;-58
2022/05/20 00:49:31;;;;;;;;;;;22.40;57.60;;;;;;5127829;27;19981;-57
2022/05/20 00:51:58;;;;;;;;;;;22.40;57.60;;;;;;5126895;27;19920;-58
2022/05/20 00:54:26;;;;;;;;;;;22.40;57.60;;;;;;5130866;27;19920;-58
2022/05/20 00:56:54;;;;;;;;;;;22.40;57.60;;;;;;5115301;27;20320;-58
2022/05/20 00:59:21;;;;;;;;;;;22.40;57.60;;;;;;5113764;27;19962;-58
2022/05/20 01:01:49;;;;;;;;;;;22.40;57.60;;;;;;5107559;27;20280;-58
2022/05/20 01:04:16;;;;;;;;;;;22.40;57.60;;;;;;5114192;27;20021;-58
2022/05/20 01:06:43;;;;;;;;;;;22.40;57.60;;;;;;5109697;27;19942;-60
2022/05/20 01:09:10;;;;;;;;;;;22.40;57.60;;;;;;5113036;27;19923;-58
2022/05/20 01:11:36;;;;;;;;;;;22.40;57.60;;;;;;5114993;27;20352;-56
2022/05/20 01:14:03;;;;;;;;;;;22.40;57.60;;;;;;5112928;27;19919;-59
2022/05/20 01:16:31;;;;;;;;;;;22.40;57.60;;;;;;5112896;27;19920;-58
2022/05/20 01:19:01;;;;;;;;;;;22.40;57.50;;;;;;5132661;27;19926;-58
2022/05/20 01:21:29;;;;;;;;;;;22.40;57.50;;;;;;5110274;27;19919;-59
2022/05/20 01:24:00;;;;;;;;;;;22.40;57.50;;;;;;5108085;27;19930;-59
2022/05/20 01:26:28;;;;;;;;;;;22.30;57.30;;;;;;5102216;27;19931;-60
2022/05/20 01:28:55;;;;;;;;;;;22.30;57.20;;;;;;5116247;27;19923;-59
2022/05/20 01:31:21;;;;;;;;;;;22.30;57.20;;;;;;5116808;27;19923;-61
2022/05/20 01:33:49;;;;;;;;;;;22.30;57.10;;;;;;5114556;27;20022;-58
2022/05/20 01:36:17;;;;;;;;;;;22.30;57.10;;;;;;5111094;27;19968;-56
2022/05/20 01:38:43;;;;;;;;;;;22.30;57.00;;;;;;5115001;27;19919;-58
2022/05/20 01:41:12;;;;;;;;;;;22.30;57.00;;;;;;5132248;27;19919;-59
2022/05/20 01:43:51;;;;;;;;;;;22.30;57.00;;;;;;5129421;27;19926;-57
2022/05/20 01:46:33;;;;;;;;;;;22.30;57.00;;;;;;5119159;27;19920;-58
2022/05/20 01:49:04;;;;;;;;;;;22.30;57.00;;;;;;5122967;27;19963;-60
2022/05/20 01:51:33;;;;;;;;;;;22.20;56.80;;;;;;5129727;27;20063;-60
2022/05/20 01:54:01;;;;;;;;;;;22.20;56.80;;;;;;5114401;27;19965;-59
2022/05/20 01:56:30;;;;;;;;;;;22.20;56.70;;;;;;5117313;27;20010;-60
2022/05/20 01:58:58;;;;;;;;;;;22.20;56.60;;;;;;5114454;27;19919;-58
2022/05/20 02:01:25;;;;;;;;;;;22.20;56.50;;;;;;5103307;27;20356;-58
2022/05/20 02:03:52;;;;;;;;;;;22.20;56.40;;;;;;5117443;27;19976;-58
2022/05/20 02:06:20;;;;;;;;;;;22.20;56.40;;;;;;5127512;27;20443;-59
2022/05/20 02:08:47;;;;;;;;;;;22.20;56.30;;;;;;5115516;27;19919;-57
2022/05/20 02:11:14;;;;;;;;;;;22.20;56.30;;;;;;5109451;27;20006;-58
2022/05/20 02:13:44;;;;;;;;;;;22.10;56.10;;;;;;5133591;27;20010;-57
2022/05/20 02:16:12;;;;;;;;;;;22.20;56.10;;;;;;5118840;27;20324;-58
2022/05/20 02:18:39;;;;;;;;;;;22.10;56.00;;;;;;5111745;27;19927;-59
2022/05/20 02:21:06;;;;;;;;;;;22.20;56.00;;;;;;5111064;27;19919;-58
2022/05/20 02:23:35;;;;;;;;;;;22.10;55.90;;;;;;5109886;27;19969;-58
2022/05/20 02:26:02;;;;;;;;;;;22.10;55.80;;;;;;5122731;27;19923;-58
2022/05/20 02:28:30;;;;;;;;;;;22.10;55.70;;;;;;5087451;27;19927;-58
2022/05/20 02:30:58;;;;;;;;;;;22.10;55.60;;;;;;5101576;27;20398;-59
2022/05/20 02:33:26;;;;;;;;;;;22.10;55.50;;;;;;5100983;28;19920;-56
2022/05/20 02:35:52;;;;;;;;;;;22.00;55.30;;;;;;5119620;27;19956;-56
2022/05/20 02:38:19;;;;;;;;;;;22.00;55.30;;;;;;5124378;27;20010;-58
2022/05/20 02:40:46;;;;;;;;;;;22.00;55.20;;;;;;5109767;28;19926;-55
2022/05/20 02:43:15;;;;;;;;;;;22.00;55.10;;;;;;5116376;27;22267;-57
2022/05/20 02:45:42;;;;;;;;;;;22.00;55.00;;;;;;5095033;27;20461;-55
2022/05/20 02:48:10;;;;;;;;;;;22.00;54.80;;;;;;5110706;27;20298;-55
2022/05/20 02:50:37;;;;;;;;;;;22.00;54.80;;;;;;5125336;27;19923;-57
2022/05/20 02:53:04;;;;;;;;;;;22.00;54.70;;;;;;5135916;28;19919;-57
2022/05/20 02:55:31;;;;;;;;;;;22.00;54.70;;;;;;5099066;27;20050;-56
2022/05/20 02:57:57;;;;;;;;;;;22.00;54.60;;;;;;5110173;28;19924;-56
2022/05/20 03:05:37;;;;;;;;;;;21.90;54.10;;;;;;4937560;22;19931;-59
2022/05/20 03:08:03;;;;;;;;;;;21.90;54.10;;;;;;4938228;28;20009;-60
2022/05/20 03:10:30;;;;;;;;;;;21.90;54.00;;;;;;4930120;29;19931;-61
2022/05/20 03:12:58;;;;;;;;;;;21.90;53.90;;;;;;4937394;28;19931;-59
2022/05/20 03:15:25;;;;;;;;;;;21.80;53.80;;;;;;4940245;28;19969;-58
2022/05/20 03:17:51;;;;;;;;;;;21.80;53.70;;;;;;4930544;29;19970;-59
2022/05/20 03:20:18;;;;;;;;;;;21.80;53.70;;;;;;4924307;28;20276;-60
2022/05/20 03:22:46;;;;;;;;;;;21.80;53.60;;;;;;4936588;28;19931;-59
2022/05/20 03:25:13;;;;;;;;;;;21.80;53.60;;;;;;4921471;29;19930;-59
2022/05/20 03:27:40;;;;;;;;;;;21.80;53.50;;;;;;4940877;28;19931;-56
2022/05/20 03:30:07;;;;;;;;;;;21.80;53.50;;;;;;4937668;28;20411;-60
2022/05/20 03:32:34;;;;;;;;;;;21.80;53.40;;;;;;4935838;28;19949;-59
2022/05/20 03:35:00;;;;;;;;;;;21.70;53.20;;;;;;4939647;28;20386;-58
2022/05/20 03:37:27;;;;;;;;;;;21.80;53.20;;;;;;4930582;28;19934;-59
2022/05/20 03:39:55;;;;;;;;;;;21.70;53.00;;;;;;4925300;28;20018;-59
2022/05/20 03:42:23;;;;;;;;;;;21.70;52.80;;;;;;4940745;28;20383;-58
2022/05/20 03:50:56;;;;;;;;;;;21.70;52.50;;;;;;4947870;28;19930;-59
2022/05/20 03:53:22;;;;;;;;;;;21.70;52.40;;;;;;4946865;28;19989;-59
2022/05/20 03:55:50;;;;;;;;;;;21.70;52.40;;;;;;4948188;28;19966;-60
2022/05/20 03:58:17;;;;;;;;;;;21.70;52.30;;;;;;4941405;28;19953;-56
2022/05/20 04:03:28;;;;;;;;;;;21.70;52.30;;;;;;4924044;28;19927;-60
2022/05/20 04:05:55;;;;;;;;;;;21.60;52.20;;;;;;4936696;29;20277;-59
2022/05/20 04:08:21;;;;;;;;;;;21.60;52.10;;;;;;4942645;28;20036;-60
2022/05/20 04:10:51;;;;;;;;;;;21.60;52.10;;;;;;4996141;28;20041;-58
2022/05/20 04:13:21;;;;;;;;;;;21.60;52.00;;;;;;4933351;28;19938;-57
2022/05/20 04:15:47;;;;;;;;;;;21.60;51.90;;;;;;4947755;28;19961;-58
2022/05/20 04:18:14;;;;;;;;;;;21.60;51.90;;;;;;4931460;28;19933;-59
2022/05/20 04:20:41;;;;;;;;;;;21.60;51.90;;;;;;4928181;28;20392;-57
2022/05/20 04:23:08;;;;;;;;;;;21.60;51.90;;;;;;4928747;28;20022;-59
2022/05/20 04:25:34;;;;;;;;;;;21.60;51.80;;;;;;4948236;28;19937;-59
2022/05/20 04:28:01;;;;;;;;;;;21.60;51.80;;;;;;4938928;28;19927;-59
2022/05/20 04:30:29;;;;;;;;;;;21.60;51.80;;;;;;4926951;28;20010;-59
2022/05/20 04:32:55;;;;;;;;;;;21.60;51.80;;;;;;4924368;28;19931;-59
2022/05/20 04:35:24;;;;;;;;;;;21.60;51.70;;;;;;4931815;28;19930;-58
2022/05/20 04:37:51;;;;;;;;;;;21.60;51.70;;;;;;4927975;29;19937;-59
2022/05/20 04:40:17;;;;;;;;;;;21.60;51.70;;;;;;4929005;29;19926;-58
2022/05/20 04:48:14;;;;;;;;;;;21.60;51.70;;;;;;4923919;28;19931;-60
2022/05/20 04:50:41;;;;;;;;;;;21.60;51.60;;;;;;4945359;28;20418;-58
2022/05/20 04:53:08;;;;;;;;;;;21.60;51.60;;;;;;4928517;28;19927;-58
2022/05/20 04:55:33;;;;;;;;;;;21.60;51.60;;;;;;4942144;28;19931;-57
2022/05/20 04:58:00;;;;;;;;;;;21.60;51.50;;;;;;4943156;28;19931;-59
2022/05/20 05:00:28;;;;;;;;;;;21.60;51.50;;;;;;4951510;28;20295;-59
2022/05/20 05:02:56;;;;;;;;;;;21.60;51.50;;;;;;4942229;28;19935;-58
2022/05/20 05:05:24;;;;;;;;;;;21.60;51.50;;;;;;4945107;28;19931;-58
2022/05/20 05:07:51;;;;;;;;;;;21.60;51.40;;;;;;4948293;28;19926;-59
2022/05/20 05:10:18;;;;;;;;;;;21.50;51.30;;;;;;4944918;28;20037;-58
2022/05/20 05:12:45;;;;;;;;;;;21.60;52.00;;;;;;4929535;28;20024;-58
2022/05/20 05:15:12;;;;;;;;;;;21.60;51.50;;;;;;4927159;29;19973;-58
2022/05/20 05:20:25;;;;;;;;;;;21.50;51.30;;;;;;4926275;29;20005;-57
2022/05/20 05:22:52;;;;;;;;;;;21.60;51.30;;;;;;4930927;28;19984;-58
2022/05/20 05:25:19;;;;;;;;;;;21.50;51.30;;;;;;4931827;29;19933;-58
2022/05/20 05:27:46;;;;;;;;;;;21.50;51.20;;;;;;4932170;28;19992;-58
2022/05/20 05:30:12;;;;;;;;;;;21.60;51.30;;;;;;4926528;28;20391;-56
2022/05/20 05:32:39;;;;;;;;;;;21.60;51.20;;;;;;4944669;28;19934;-57
2022/05/20 05:35:07;;;;;;;;;;;21.60;51.20;;;;;;4944517;28;20515;-58
2022/05/20 05:37:35;;;;;;;;;;;21.50;51.10;;;;;;4931262;28;20494;-59
2022/05/20 05:40:02;;;;;;;;;;;21.60;51.10;;;;;;4925615;28;19931;-58
2022/05/20 05:42:29;;;;;;;;;;;21.50;51.00;;;;;;4943516;28;19962;-59
2022/05/20 05:44:56;;;;;;;;;;;21.60;51.00;;;;;;4942088;28;19931;-59
2022/05/20 05:47:23;;;;;;;;;;;21.60;51.00;;;;;;4929649;28;19927;-59
2022/05/20 05:49:51;;;;;;;;;;;21.60;50.90;;;;;;4927554;29;19927;-58
2022/05/20 05:52:18;;;;;;;;;;;21.50;50.90;;;;;;4930173;28;20318;-60
2022/05/20 05:54:46;;;;;;;;;;;21.50;50.90;;;;;;4924436;28;19949;-57
2022/05/20 05:57:13;;;;;;;;;;;21.50;50.80;;;;;;4929072;29;20295;-59
2022/05/20 05:59:40;;;;;;;;;;;21.50;50.70;;;;;;4929902;29;20443;-57
2022/05/20 06:02:08;;;;;;;;;;;21.50;50.60;;;;;;4929048;29;20303;-59
2022/05/20 06:04:34;;;;;;;;;;;21.50;50.60;;;;;;4937354;28;20277;-59
2022/05/20 06:07:01;;;;;;;;;;;21.50;50.40;;;;;;4928194;29;20033;-58
2022/05/20 06:09:28;;;;;;;;;;;21.50;50.40;;;;;;4945660;28;19970;-60
2022/05/20 06:11:56;;;;;;;;;;;21.50;50.30;;;;;;4929678;29;19935;-60
2022/05/20 06:14:23;;;;;;;;;;;21.50;50.10;;;;;;4944804;28;20415;-60
2022/05/20 06:16:50;;;;;;;;;;;21.50;50.10;;;;;;4927450;28;19931;-58
2022/05/20 06:19:17;;;;;;;;;;;21.50;50.00;;;;;;4944004;28;19927;-59
2022/05/20 06:21:44;;;;;;;;;;;21.50;49.90;;;;;;4944259;28;19931;-59
2022/05/20 06:24:10;;;;;;;;;;;21.40;49.90;;;;;;4943457;28;19962;-60
2022/05/20 06:26:37;;;;;;;;;;;21.50;49.80;;;;;;4941165;28;20009;-60
2022/05/20 06:29:05;;;;;;;;;;;21.50;49.80;;;;;;4928920;28;20418;-60
2022/05/20 06:31:32;;;;;;;;;;;21.50;49.70;;;;;;4930290;28;19927;-60
2022/05/20 06:33:59;;;;;;;;;;;21.50;49.70;;;;;;4928643;28;19927;-58
2022/05/20 06:41:54;;;;;;;;;;;21.40;49.50;;;;;;4940539;28;19931;-54
2022/05/20 06:44:24;;;;;;;;;;;21.40;49.60;;;;;;4927178;28;20678;-56
2022/05/20 06:46:50;;;;;;;;;;;21.40;49.60;;;;;;4944952;28;19927;-56
2022/05/20 06:49:17;;;;;;;;;;;21.40;49.60;;;;;;4929285;28;19934;-56
2022/05/20 06:51:44;;;;;;;;;;;21.40;49.70;;;;;;4929789;28;20001;-54
2022/05/20 06:54:11;;;;;;;;;;;21.40;49.70;;;;;;4929462;29;19950;-55
2022/05/20 06:56:38;;;;;;;;;;;21.50;49.80;;;;;;4944334;28;20406;-59
2022/05/20 06:59:06;;;;;;;;;;;21.50;49.90;;;;;;4931927;29;19982;-54
2022/05/20 07:01:34;;;;;;;;;;;21.40;49.90;;;;;;4939812;28;19978;-53
2022/05/20 07:04:00;;;;;;;;;;;21.40;50.00;;;;;;4928738;28;19931;-55
2022/05/20 07:06:30;;;;;;;;;;;21.50;50.10;;;;;;4923335;29;19926;-58
2022/05/20 07:08:56;;;;;;;;;;;21.50;50.10;;;;;;4937989;28;19990;-59
2022/05/20 07:11:23;;;;;;;;;;;21.50;50.30;;;;;;4927791;29;19959;-57
2022/05/20 07:13:54;;;;;;;;;;;21.50;50.30;;;;;;4923717;29;19958;-58
2022/05/20 07:16:21;;;;;;;;;;;21.50;50.30;;;;;;4926233;29;19927;-55
2022/05/20 07:18:49;;;;;;;;;;;21.50;50.30;;;;;;4927274;28;19934;-54
2022/05/20 07:21:16;;;;;;;;;;;21.50;50.40;;;;;;4942479;28;19931;-57
2022/05/20 07:23:42;;;;;;;;;;;21.50;50.40;;;;;;4926379;29;19954;-56
2022/05/20 07:26:10;;;;;;;;;;;21.50;50.40;;;;;;4943769;28;19974;-56
2022/05/20 07:28:36;;;;;;;;;;;21.50;50.50;;;;;;4947927;28;19935;-54
2022/05/20 07:31:03;;;;;;;;;;;21.60;50.60;;;;;;4932704;28;19931;-58
2022/05/20 07:33:30;;;;;;;;;;;21.50;50.50;;;;;;4945992;28;19927;-59
2022/05/20 07:35:59;;;;;;;;;;;21.50;50.40;;;;;;4948075;28;20034;-58
2022/05/20 07:38:26;;;;;;;;;;;21.50;50.40;;;;;;4929042;28;20029;-58
2022/05/20 07:40:55;;;;;;;;;;;21.60;50.50;;;;;;4921663;28;20046;-59
2022/05/20 07:43:22;;;;;;;;;;;21.60;50.40;;;;;;4934383;28;19941;-59
2022/05/20 07:45:49;;;;;;;;;;;21.60;50.40;;;;;;4923488;28;19934;-58
2022/05/20 07:48:15;;;;;;;;;;;21.60;50.40;;;;;;4932146;29;20002;-59
2022/05/20 07:50:44;;;;;;;;;;;21.60;50.40;;;;;;4934457;28;19974;-59
2022/05/20 07:53:21;;;;;;;;;;;21.60;50.40;;;;;;4937829;28;20419;-58
2022/05/20 07:55:48;;;;;;;;;;;21.60;50.40;;;;;;4929242;28;19942;-58
2022/05/20 07:58:16;;;;;;;;;;;21.60;50.30;;;;;;4922505;28;19985;-58
2022/05/20 08:00:43;;;;;;;;;;;21.60;50.00;;;;;;4926461;29;20025;-58
2022/05/20 08:03:09;;;;;;;;;;;21.50;49.50;;;;;;4928421;28;19933;-55
2022/05/20 08:05:35;;;;;;;;;;;21.50;49.00;;;;;;4932847;28;19976;-58
2022/05/20 08:08:03;;;;;;;;;;;21.50;49.00;;;;;;4937649;29;19930;-58
2022/05/20 08:10:33;;;;;;;;;;;21.50;48.80;;;;;;4919949;28;19950;-58
2022/05/20 08:12:59;;;;;;;;;;;21.50;48.70;;;;;;4919892;28;19931;-59
2022/05/20 08:15:26;;;;;;;;;;;21.50;48.80;;;;;;4920309;28;19942;-58
2022/05/20 08:17:53;;;;;;;;;;;21.50;48.80;;;;;;4934759;28;19934;-63
2022/05/20 08:20:22;;;;;;;;;;;21.40;48.70;;;;;;4937941;28;20339;-59
2022/05/20 08:22:49;;;;;;;;;;;21.40;48.70;;;;;;4943118;28;19931;-59
2022/05/20 08:25:16;;;;;;;;;;;21.40;48.90;;;;;;4920058;28;20018;-58
2022/05/20 08:27:44;;;;;;;;;;;21.40;49.00;;;;;;4925178;28;19939;-59
2022/05/20 08:30:11;;;;;;;;;;;21.40;49.20;;;;;;4948366;28;19966;-58
2022/05/20 08:32:38;;;;;;;;;;;21.40;49.30;;;;;;4937707;28;19927;-58
2022/05/20 08:35:05;;;;;;;;;;;21.40;49.30;;;;;;4926564;28;19927;-58
2022/05/20 08:37:33;;;;;;;;;;;21.40;49.30;;;;;;4930975;28;20437;-57
2022/05/20 08:40:00;;;;;;;;;;;21.40;49.50;;;;;;4948293;28;19927;-57
2022/05/20 08:42:29;;;;;;;;;;;21.50;49.70;;;;;;4930168;28;19935;-60
2022/05/20 08:44:57;;;;;;;;;;;21.50;49.80;;;;;;4947904;28;20445;-58
2022/05/20 08:47:24;;;;;;;;;;;21.50;49.80;;;;;;4944013;28;19926;-59
2022/05/20 08:49:51;;;;;;;;;;;21.50;49.80;;;;;;4964099;28;19927;-59
2022/05/20 08:52:19;;;;;;;;;;;21.50;49.70;;;;;;4930547;28;19935;-59
2022/05/20 08:54:46;;;;;;;;;;;21.50;49.70;;;;;;4929930;28;19931;-59
2022/05/20 08:57:14;;;;;;;;;;;21.50;49.70;;;;;;4944564;28;19933;-59
2022/05/20 08:59:41;;;;;;;;;;;21.50;49.70;;;;;;4949549;28;20013;-60
2022/05/20 09:02:09;;;;;;;;;;;21.50;49.80;;;;;;4927892;28;20042;-59
2022/05/20 09:04:37;;;;;;;;;;;21.50;49.80;;;;;;4952898;28;20045;-59
2022/05/20 09:07:04;;;;;;;;;;;21.60;49.90;;;;;;4958716;28;19935;-60
2022/05/20 09:09:39;;;;;;;;;;;21.60;49.80;;;;;;4930856;28;19927;-58
2022/05/20 09:12:06;;;;;;;;;;;21.50;49.70;;;;;;4942762;28;19997;-60
2022/05/20 09:17:21;;;;;;;;;;;21.50;49.70;;;;;;4928482;28;19935;-60
2022/05/20 09:19:53;;;;;;;;;;;21.50;49.70;;;;;;4939586;28;19934;-59
2022/05/20 09:22:24;;;;;;;;;;;21.60;49.90;;;;;;4924630;28;20311;-60
2022/05/20 09:24:50;;;;;;;;;;;21.60;50.00;;;;;;4930443;29;19927;-59
2022/05/20 09:27:18;;;;;;;;;;;21.60;50.00;;;;;;4927843;28;20371;-59
2022/05/20 09:29:45;;;;;;;;;;;21.60;50.00;;;;;;4926962;29;19996;-59
2022/05/20 09:32:16;;;;;;;;;;;21.60;50.00;;;;;;4920472;28;19989;-59
2022/05/20 09:34:44;;;;;;;;;;;21.60;50.00;;;;;;4917584;28;19946;-59
2022/05/20 09:37:17;;;;;;;;;;;21.60;50.00;;;;;;4925730;29;19926;-59
2022/05/20 09:39:44;;;;;;;;;;;21.60;50.00;;;;;;4944133;28;19965;-60
2022/05/20 09:42:11;;;;;;;;;;;21.60;50.00;;;;;;4935194;28;19927;-59
2022/05/20 09:44:39;;;;;;;;;;;21.60;49.90;;;;;;4927843;28;20026;-60
2022/05/20 09:47:08;;;;;;;;;;;21.60;49.90;;;;;;4945497;28;19927;-57
2022/05/20 09:49:38;;;;;;;;;;;21.60;49.90;;;;;;4919145;28;19933;-60
2022/05/20 09:52:14;;;;;;;;;;;21.60;49.90;;;;;;4927288;28;19933;-59
2022/05/20 09:54:41;;;;;;;;;;;21.60;50.00;;;;;;4917070;28;19927;-60
2022/05/20 09:57:10;;;;;;;;;;;21.60;49.90;;;;;;4940173;28;19970;-59
2022/05/20 09:59:39;;;;;;;;;;;21.60;50.00;;;;;;4920084;28;19935;-58
2022/05/20 10:02:07;;;;;;;;;;;21.70;50.00;;;;;;4945134;28;19958;-60
2022/05/20 10:04:38;;;;;;;;;;;21.60;50.00;;;;;;4928403;28;20441;-60
2022/05/20 10:07:06;;;;;;;;;;;21.70;50.00;;;;;;4936806;28;19934;-57
2022/05/20 10:09:34;;;;;;;;;;;21.70;50.00;;;;;;4935459;28;19931;-60
2022/05/20 10:12:01;;;;;;;;;;;21.70;50.00;;;;;;4935950;28;19927;-58
2022/05/20 10:14:28;;;;;;;;;;;21.70;50.10;;;;;;4937814;28;19969;-59
2022/05/20 10:16:56;;;;;;;;;;;21.70;50.10;;;;;;4921466;29;19930;-60
2022/05/20 10:19:26;;;;;;;;;;;21.70;50.10;;;;;;4932271;28;20030;-59
2022/05/20 10:21:55;;;;;;;;;;;21.70;50.10;;;;;;4927386;28;20342;-60
2022/05/20 10:24:41;;;;;;;;;;;21.70;50.20;;;;;;4916495;28;20048;-59
2022/05/20 10:27:11;;;;;;;;;;;21.70;50.20;;;;;;4925796;28;19930;-60
2022/05/20 10:32:35;;;;;;;;;;;21.70;50.20;;;;;;4924961;29;19950;-60
2022/05/20 10:35:03;;;;;;;;;;;21.70;50.20;;;;;;4919254;28;19981;-61
2022/05/20 10:37:31;;;;;;;;;;;21.80;50.30;;;;;;4928094;29;19927;-59
2022/05/20 10:40:10;;;;;;;;;;;21.70;50.20;;;;;;4928041;28;19935;-64
2022/05/20 10:42:53;;;;;;;;;;;21.80;50.30;;;;;;4917004;28;19981;-59
2022/05/20 10:50:59;;;;;;;;;;;21.80;50.30;;;;;;4939958;28;20021;-61
2022/05/20 10:53:29;;;;;;;;;;;21.80;50.30;;;;;;4928295;28;20390;-57
2022/05/20 10:56:07;;;;;;;;;;;21.80;50.30;;;;;;4928892;28;20028;-64
2022/05/20 10:58:43;;;;;;;;;;;21.80;50.30;;;;;;4914791;28;19931;-60
2022/05/20 11:01:12;;;;;;;;;;;21.80;50.30;;;;;;4928331;28;20022;-59
2022/05/20 11:04:00;;;;;;;;;;;21.80;50.30;;;;;;4914409;28;19931;-60
2022/05/20 11:06:31;;;;;;;;;;;21.80;50.20;;;;;;4925351;28;20014;-60
2022/05/20 11:09:00;;;;;;;;;;;21.80;50.20;;;;;;4913250;29;19967;-59
2022/05/20 11:11:41;;;;;;;;;;;21.80;50.20;;;;;;4921719;28;19964;-62
2022/05/20 11:14:12;;;;;;;;;;;21.80;50.20;;;;;;4913956;28;19974;-61
2022/05/20 11:16:51;;;;;;;;;;;21.80;50.20;;;;;;4911150;28;20005;-56
2022/05/20 11:19:23;;;;;;;;;;;21.80;50.20;;;;;;4940723;28;20029;-60
2022/05/20 11:22:10;;;;;;;;;;;21.80;50.20;;;;;;4943472;28;19937;-61
2022/05/20 11:24:48;;;;;;;;;;;21.80;50.20;;;;;;4909623;29;19927;-60
2022/05/20 11:27:21;;;;;;;;;;;21.80;50.20;;;;;;4937691;28;20465;-60
2022/05/20 11:30:00;;;;;;;;;;;21.80;50.10;;;;;;4930869;28;19937;-59
2022/05/20 11:32:30;;;;;;;;;;;21.80;50.10;;;;;;4934188;28;20322;-59
2022/05/20 11:35:03;;;;;;;;;;;21.90;50.20;;;;;;4926138;28;19969;-59
2022/05/20 11:37:38;;;;;;;;;;;21.80;50.10;;;;;;4915406;28;20021;-59
2022/05/20 11:40:29;;;;;;;;;;;21.90;50.10;;;;;;4931970;28;19974;-59
2022/05/20 11:43:10;;;;;;;;;;;21.80;50.00;;;;;;4936840;28;19993;-61
2022/05/20 11:45:41;;;;;;;;;;;21.90;50.10;;;;;;4922243;28;19931;-61
2022/05/20 11:48:13;;;;;;;;;;;21.90;50.20;;;;;;4930318;28;19997;-61
2022/05/20 11:50:58;;;;;;;;;;;21.80;50.10;;;;;;4926947;28;19938;-60
2022/05/20 11:53:26;;;;;;;;;;;21.80;50.10;;;;;;4937293;28;20038;-57
2022/05/20 11:55:53;;;;;;;;;;;21.90;50.20;;;;;;4925511;28;19933;-60
2022/05/20 11:58:21;;;;;;;;;;;21.90;50.20;;;;;;4924191;28;19933;-60
2022/05/20 12:00:49;;;;;;;;;;;21.80;50.00;;;;;;4935395;28;20018;-60
2022/05/20 12:03:16;;;;;;;;;;;21.90;50.00;;;;;;4934660;28;19942;-60
2022/05/20 12:05:45;;;;;;;;;;;21.90;50.00;;;;;;4915682;28;19931;-59
2022/05/20 12:08:26;;;;;;;;;;;21.80;49.90;;;;;;4944833;28;20353;-58
2022/05/20 12:10:53;;;;;;;;;;;21.90;50.00;;;;;;4924953;28;19931;-59
2022/05/20 12:13:21;;;;;;;;;;;21.90;50.00;;;;;;4913183;28;19931;-59
2022/05/20 12:15:50;;;;;;;;;;;21.90;50.00;;;;;;4945294;28;19934;-58
2022/05/20 12:24:11;;;;;;;;;;;21.90;50.10;;;;;;4947866;29;20016;-60
2022/05/20 12:24:13;;;;;;;;;;;21.90;50.10;;;;;;4928484;28;19933;-59
2022/05/20 12:26:45;;;;;;;;;;;21.90;50.10;;;;;;4921665;28;19931;-58
2022/05/20 12:29:31;;;;;;;;;;;21.90;50.10;;;;;;4915492;28;19941;-60
2022/05/20 12:31:58;;;;;;;;;;;21.90;50.00;;;;;;4946394;28;19931;-60
2022/05/20 12:34:38;;;;;;;;;;;21.90;50.00;;;;;;4945251;29;20320;-58
2022/05/20 12:37:04;;;;;;;;;;;21.90;50.00;;;;;;4944556;28;19927;-60
2022/05/20 12:39:46;;;;;;;;;;;21.90;49.90;;;;;;4944667;28;19937;-59
2022/05/20 12:42:20;;;;;;;;;;;21.90;49.90;;;;;;4931093;28;19930;-60
2022/05/20 12:44:47;;;;;;;;;;;21.90;49.90;;;;;;4933467;28;19923;-59
2022/05/20 12:47:16;;;;;;;;;;;21.90;49.80;;;;;;4933791;28;19933;-58
2022/05/20 12:49:44;;;;;;;;;;;21.90;49.80;;;;;;4946866;28;20018;-60
2022/05/20 12:52:12;;;;;;;;;;;21.90;49.90;;;;;;4914334;29;19927;-59
2022/05/20 12:54:40;;;;;;;;;;;21.90;49.90;;;;;;4920135;28;19927;-59
2022/05/20 12:57:07;;;;;;;;;;;21.90;49.90;;;;;;4931449;29;20037;-60
2022/05/20 12:59:34;;;;;;;;;;;21.90;50.00;;;;;;4928567;29;19928;-60
2022/05/20 13:02:01;;;;;;;;;;;21.90;50.00;;;;;;4924528;29;19937;-58
2022/05/20 13:04:29;;;;;;;;;;;21.90;50.00;;;;;;4947436;28;19931;-60
2022/05/20 13:06:57;;;;;;;;;;;21.90;50.00;;;;;;4932206;28;19927;-59
2022/05/20 13:09:25;;;;;;;;;;;21.90;50.00;;;;;;4950806;28;20009;-59
2022/05/20 13:11:52;;;;;;;;;;;21.90;49.90;;;;;;4930667;28;19927;-61
2022/05/20 13:14:20;;;;;;;;;;;21.90;49.90;;;;;;4914565;28;20033;-59
2022/05/20 13:16:47;;;;;;;;;;;22.00;50.00;;;;;;4943252;28;20276;-60
2022/05/20 13:19:15;;;;;;;;;;;22.00;50.00;;;;;;4947917;28;19938;-60
2022/05/20 13:21:44;;;;;;;;;;;21.90;49.90;;;;;;4928895;28;19956;-60
2022/05/20 13:24:14;;;;;;;;;;;22.00;49.90;;;;;;4947765;28;19938;-60
2022/05/20 13:26:42;;;;;;;;;;;21.90;49.90;;;;;;4932422;29;19930;-60
2022/05/20 13:29:09;;;;;;;;;;;21.90;49.90;;;;;;4950019;28;20470;-60
2022/05/20 13:31:36;;;;;;;;;;;21.90;49.90;;;;;;4925609;28;20380;-60
2022/05/20 13:34:03;;;;;;;;;;;21.90;49.90;;;;;;4929351;28;19934;-61
2022/05/20 13:36:33;;;;;;;;;;;22.00;50.00;;;;;;4914679;29;19950;-62
2022/05/20 13:39:02;;;;;;;;;;;21.90;50.00;;;;;;4933274;28;20391;-58
2022/05/20 13:41:29;;;;;;;;;;;22.00;50.00;;;;;;4944756;28;20005;-60
2022/05/20 13:43:56;;;;;;;;;;;22.00;50.10;;;;;;4941946;28;20376;-57
2022/05/20 13:49:16;;;;;;;;;;;22.00;50.00;;;;;;4925438;29;20320;-60
2022/05/20 13:51:45;;;;;;;;;;;22.00;50.10;;;;;;4914451;28;19993;-58
2022/05/20 13:54:14;;;;;;;;;;;22.00;50.10;;;;;;4911117;28;20307;-60
2022/05/20 13:56:42;;;;;;;;;;;22.00;50.10;;;;;;4943699;28;19931;-61
2022/05/20 13:59:19;;;;;;;;;;;22.00;50.10;;;;;;4946768;28;20016;-61
2022/05/20 14:01:47;;;;;;;;;;;22.00;50.10;;;;;;4944648;28;19931;-61
2022/05/20 14:04:14;;;;;;;;;;;22.00;50.10;;;;;;4929755;28;19931;-58
2022/05/20 14:06:42;;;;;;;;;;;22.00;50.10;;;;;;4929734;28;19930;-55
2022/05/20 14:09:09;;;;;;;;;;;22.00;50.10;;;;;;4929020;28;19927;-57
2022/05/20 14:11:39;;;;;;;;;;;22.00;50.10;;;;;;4937290;29;20283;-56
2022/05/20 14:14:07;;;;;;;;;;;22.00;50.10;;;;;;4930853;28;19958;-58
2022/05/20 14:16:34;;;;;;;;;;;22.00;50.10;;;;;;4945843;28;19930;-59
2022/05/20 14:19:02;;;;;;;;;;;22.00;50.10;;;;;;4935670;28;19979;-60
2022/05/20 14:21:30;;;;;;;;;;;22.00;50.10;;;;;;4930606;29;19981;-59
2022/05/20 14:23:56;;;;;;;;;;;22.00;50.20;;;;;;4946180;28;19931;-58
2022/05/20 14:26:33;;;;;;;;;;;22.00;50.10;;;;;;4944459;28;19981;-59
2022/05/20 14:29:05;;;;;;;;;;;22.00;50.10;;;;;;4927542;28;19996;-59
2022/05/20 14:31:33;;;;;;;;;;;22.00;50.30;;;;;;4943140;28;19949;-59
2022/05/20 14:34:04;;;;;;;;;;;22.00;50.20;;;;;;4944537;28;19926;-58
2022/05/20 14:36:32;;;;;;;;;;;22.00;50.10;;;;;;4964132;28;20396;-58
2022/05/20 14:38:59;;;;;;;;;;;22.00;50.10;;;;;;4957024;28;20340;-60
2022/05/20 14:41:26;;;;;;;;;;;22.00;50.10;;;;;;4938583;29;19928;-59
2022/05/20 14:43:53;;;;;;;;;;;22.00;50.20;;;;;;4942582;28;19981;-60
2022/05/20 14:49:10;;;;;;;;;;;22.00;50.10;;;;;;4947878;28;19927;-59
2022/05/20 14:51:37;;;;;;;;;;;22.00;50.20;;;;;;4954694;28;19965;-59
2022/05/20 14:54:04;;;;;;;;;;;22.00;50.20;;;;;;4927984;29;20013;-59
2022/05/20 14:56:38;;;;;;;;;;;22.00;50.10;;;;;;4930937;29;19927;-59
2022/05/20 14:59:05;;;;;;;;;;;22.10;50.20;;;;;;4919846;28;20514;-60
2022/05/20 15:01:34;;;;;;;;;;;22.00;50.10;;;;;;4944201;28;20319;-58
2022/05/20 15:04:01;;;;;;;;;;;22.00;50.10;;;;;;4929355;28;19958;-58
2022/05/20 15:06:28;;;;;;;;;;;22.00;50.20;;;;;;4921677;28;19926;-61
2022/05/20 15:08:55;;;;;;;;;;;22.10;50.20;;;;;;4923140;28;20292;-59
2022/05/20 15:11:22;;;;;;;;;;;22.00;50.10;;;;;;4924448;28;19950;-60